Time;durP1;ratioP1;P1;durP2;ratioP2;P2;SDS_P1;SDS_P2;PMS_P1;PMS_P2;Temp;Humidity;BMP_temperature;BMP_pressure;BME280_temperature;BME280_humidity;BME280_pressure;Samples;Min_cycle;Max_cycle;Signal;HPM_P1;HPM_P2
2023/08/01 00:05:24;;;;;;;11.50;5.50;;;;;;;17.03;68.56;97793.73;435007;1257;99196;-41
2023/08/01 00:15:31;;;;;;;11.90;5.30;;;;;;;17.04;68.43;97794.73;434822;1266;348344;-43
2023/08/01 00:25:39;;;;;;;8.80;5.30;;;;;;;17.00;68.52;97787.15;435154;1256;107470;-43
2023/08/01 00:35:54;;;;;;;10.50;5.40;;;;;;;16.94;68.70;97778.27;435041;1254;98816;-43
2023/08/01 00:45:59;;;;;;;9.10;5.90;;;;;;;16.91;68.79;97767.11;435070;1253;108451;-39
2023/08/01 00:56:07;;;;;;;11.50;4.60;;;;;;;16.85;69.10;97751.45;435184;1256;99251;-42
2023/08/01 01:16:21;;;;;;;;;;;;;;;16.65;70.04;97718.45;435086;1257;108726;-42
2023/08/01 01:26:29;;;;;;;8.70;4.90;;;;;;;16.59;70.22;97706.85;435038;1266;99276;-42
2023/08/01 01:36:36;;;;;;;8.60;4.50;;;;;;;16.55;70.39;97683.92;435878;1256;108097;-43
2023/08/01 01:46:46;;;;;;;7.80;5.10;;;;;;;16.50;70.65;97667.14;435219;1264;99250;-42
2023/08/01 01:56:53;;;;;;;9.50;4.70;;;;;;;16.42;70.86;97652.08;435302;1257;111148;-42
2023/08/01 02:07:01;;;;;;;10.30;4.60;;;;;;;16.33;71.10;97639.83;434980;1254;107335;-43
2023/08/01 02:27:13;;;;;;;8.00;5.40;;;;;;;16.19;71.95;97612.15;435014;1257;107881;-42
2023/08/01 02:37:20;;;;;;;13.00;4.60;;;;;;;16.17;72.11;97599.27;435079;1265;99214;-43
2023/08/01 02:47:28;;;;;;;10.60;5.60;;;;;;;16.23;72.20;97586.63;435108;1266;110086;-43
2023/08/01 02:57:35;;;;;;;7.60;5.20;;;;;;;16.20;72.42;97577.93;435088;1254;109322;-42
2023/08/01 03:07:42;;;;;;;10.50;5.50;;;;;;;16.15;72.67;97570.39;434997;1256;99275;-43
2023/08/01 03:17:49;;;;;;;8.20;4.00;;;;;;;16.10;72.96;97553.95;435008;1261;109279;-42
2023/08/01 03:27:57;;;;;;;7.70;4.50;;;;;;;16.16;73.01;97544.23;435087;1257;99247;-42
2023/08/01 03:38:05;;;;;;;9.50;5.70;;;;;;;16.22;73.08;97541.68;435060;1267;111697;-43
2023/08/01 03:48:13;;;;;;;11.10;4.10;;;;;;;16.54;73.04;97533.98;435067;1267;107846;-45
2023/08/01 03:58:20;;;;;;;8.80;4.00;;;;;;;17.09;72.40;97527.65;434996;1257;99272;-41
2023/08/01 04:08:26;;;;;;;8.50;4.40;;;;;;;17.43;71.78;97525.79;435128;1256;109864;-42
2023/08/01 04:18:33;;;;;;;11.50;4.20;;;;;;;17.34;71.47;97525.24;435169;1252;99018;-42
2023/08/01 04:28:40;;;;;;;8.00;3.20;;;;;;;17.40;71.31;97517.08;435188;1258;111687;-43
2023/08/01 04:38:48;;;;;;;7.10;3.70;;;;;;;17.66;70.97;97503.30;435094;1256;106666;-41
2023/08/01 04:48:55;;;;;;;5.50;2.90;;;;;;;17.87;70.65;97493.79;435305;1254;99836;-43
2023/08/01 05:09:09;;;;;;;7.40;3.90;;;;;;;18.70;69.42;97481.77;435194;1254;97948;-41
2023/08/01 05:19:16;;;;;;;12.30;3.30;;;;;;;19.19;68.32;97475.08;435144;1253;110630;-43
2023/08/01 05:29:23;;;;;;;5.60;3.20;;;;;;;19.35;67.66;97471.81;435145;1257;109410;-42
2023/08/01 05:39:31;;;;;;;11.90;3.30;;;;;;;19.42;67.05;97466.88;435201;1266;99256;-42
2023/08/01 05:49:39;;;;;;;10.20;3.30;;;;;;;19.70;66.63;97463.45;435151;1253;107695;-44
2023/08/01 05:59:44;;;;;;;7.60;3.60;;;;;;;20.39;66.27;97467.35;435260;1254;98006;-43
2023/08/01 06:19:57;;;;;;;11.80;4.00;;;;;;;21.46;64.88;97462.34;435349;1254;107419;-43
2023/08/01 06:30:04;;;;;;;10.80;3.80;;;;;;;21.49;64.31;97467.86;435232;1254;98020;-42
2023/08/01 06:40:12;;;;;;;4.20;3.40;;;;;;;21.25;64.07;97466.72;435334;1257;108615;-42
2023/08/01 06:50:20;;;;;;;7.80;3.20;;;;;;;21.08;64.15;97466.90;435074;1254;99260;-43
2023/08/01 07:00:28;;;;;;;6.10;4.10;;;;;;;21.20;64.14;97453.84;435197;1257;112898;-42
2023/08/01 07:10:35;;;;;;;9.40;4.00;;;;;;;21.10;63.80;97449.80;435140;1254;109843;-43
2023/08/01 07:20:43;;;;;;;7.80;3.70;;;;;;;20.99;64.00;97440.14;435292;1253;99249;-42
2023/08/01 07:30:58;;;;;;;9.60;3.60;;;;;;;20.98;64.08;97432.29;435147;1257;109017;-42
2023/08/01 07:41:05;;;;;;;5.70;4.00;;;;;;;21.10;64.07;97421.46;435226;1256;99013;-41
2023/08/01 07:51:12;;;;;;;7.40;5.30;;;;;;;21.16;64.28;97417.21;435165;1256;112435;-42
2023/08/01 08:01:18;;;;;;;10.50;4.30;;;;;;;21.24;64.34;97414.57;435236;1253;108382;-44
2023/08/01 08:11:26;;;;;;;7.50;3.20;;;;;;;21.22;64.10;97412.29;435278;1252;98078;-42
2023/08/01 08:21:34;;;;;;;9.20;3.30;;;;;;;21.09;64.31;97412.33;435431;1256;108541;-42
2023/08/01 08:31:40;;;;;;;7.40;4.00;;;;;;;21.17;64.60;97419.08;435074;1257;99211;-43
2023/08/01 08:41:52;;;;;;;7.70;3.60;;;;;;;21.18;64.72;97413.45;435411;1257;112826;-42
2023/08/01 09:12:10;;;;;;;11.50;3.70;;;;;;;20.89;65.92;97402.69;435208;1252;107754;-42
2023/08/01 09:42:38;;;;;;;5.70;3.50;;;;;;;21.64;65.70;97358.09;435094;1257;107188;-43
2023/08/01 10:02:56;;;;;;;9.80;3.70;;;;;;;22.36;64.76;97328.62;435168;1256;108050;-42
2023/08/01 10:13:02;;;;;;;6.00;3.40;;;;;;;22.79;63.65;97312.77;435296;1257;99830;-43
2023/08/01 10:23:10;;;;;;;4.50;3.60;;;;;;;23.06;62.71;97302.70;435230;1256;112135;-43
2023/08/01 10:33:17;;;;;;;8.80;3.70;;;;;;;22.84;62.19;97298.00;435238;1254;108058;-41
2023/08/01 10:53:42;;;;;;;10.80;4.00;;;;;;;22.48;62.95;97301.39;434979;1253;108134;-42
2023/08/01 11:13:53;;;;;;;8.70;4.00;;;;;;;21.85;64.50;97299.98;435397;1257;111449;-42
2023/08/01 11:24:00;;;;;;;5.40;4.90;;;;;;;21.82;65.37;97291.98;435342;1254;106792;-42
2023/08/01 11:34:08;;;;;;;6.50;4.80;;;;;;;21.71;66.40;97284.23;435195;1254;99317;-42
2023/08/01 11:44:13;;;;;;;6.10;4.20;;;;;;;21.76;67.11;97282.96;435156;1256;107990;-41
2023/08/01 11:54:21;;;;;;;5.60;4.00;;;;;;;21.75;67.84;97295.98;435194;1254;99224;-43
2023/08/01 12:04:28;;;;;;;7.70;4.50;;;;;;;21.80;67.91;97291.59;435337;1253;111944;-43
2023/08/01 12:14:33;;;;;;;8.20;4.60;;;;;;;21.70;68.29;97279.67;434890;1256;404487;-42
2023/08/01 12:24:40;;;;;;;6.60;4.00;;;;;;;21.72;68.51;97259.73;435203;1254;98833;-44
2023/08/01 12:34:47;;;;;;;7.90;4.30;;;;;;;21.45;68.70;97258.48;435126;1254;109511;-43
2023/08/01 12:44:54;;;;;;;8.30;4.70;;;;;;;21.35;69.11;97255.83;435028;1256;99221;-43
2023/08/01 12:55:02;;;;;;;9.80;4.10;;;;;;;21.16;68.99;97262.23;435184;1256;111983;-42
2023/08/01 13:15:17;;;;;;;5.30;3.70;;;;;;;20.64;69.72;97251.50;435114;1256;98143;-45
2023/08/01 13:25:24;;;;;;;6.00;4.10;;;;;;;20.69;70.04;97247.77;435194;1254;107590;-43
2023/08/01 13:35:30;;;;;;;6.70;4.30;;;;;;;20.76;70.28;97235.86;435272;1253;99219;-41
2023/08/01 13:45:38;;;;;;;7.10;4.20;;;;;;;20.64;70.55;97223.87;435190;1254;111783;-42
2023/08/01 13:55:44;;;;;;;8.80;4.30;;;;;;;20.35;71.30;97216.79;435269;1257;108393;-43
2023/08/01 14:15:57;;;;;;;4.70;3.80;;;;;;;20.45;73.02;97192.77;434938;1254;108763;-42
2023/08/01 14:26:06;;;;;;;4.70;4.00;;;;;;;20.76;73.02;97198.80;435201;1254;99311;-42
2023/08/01 14:36:14;;;;;;;46.30;33.30;;;;;;;20.82;72.94;97201.55;435264;1253;110782;-42
2023/08/01 14:46:22;;;;;;;8.10;7.10;;;;;;;20.95;72.85;97202.52;435065;1254;107887;-41
2023/08/01 14:56:28;;;;;;;8.40;5.20;;;;;;;21.09;72.46;97198.42;435204;1256;99253;-41
2023/08/01 15:06:35;;;;;;;27.20;12.80;;;;;;;20.60;72.35;97194.94;435203;1253;108623;-42
2023/08/01 15:26:50;;;;;;;14.00;5.70;;;;;;;20.29;72.60;97231.11;435094;1256;110618;-42
2023/08/01 15:36:57;;;;;;;12.10;7.60;;;;;;;20.30;72.52;97228.08;435183;1256;108421;-43
2023/08/01 15:47:04;;;;;;;6.80;5.00;;;;;;;20.25;72.43;97237.82;435253;1252;99238;-44
2023/08/01 15:57:12;;;;;;;12.40;4.30;;;;;;;20.14;72.39;97251.98;435242;1256;108637;-43
2023/08/01 16:17:23;;;;;;;5.70;4.20;;;;;;;19.88;72.49;97259.25;435093;1256;111697;-43
2023/08/01 16:27:33;;;;;;;8.70;4.60;;;;;;;19.66;72.74;97261.02;435099;1257;107302;-41
2023/08/01 16:37:41;;;;;;;17.90;9.30;;;;;;;19.68;72.85;97262.88;435231;1256;99212;-43
2023/08/01 16:47:48;;;;;;;13.60;6.30;;;;;;;19.43;73.04;97262.27;435074;1257;108574;-43
2023/08/01 16:57:57;;;;;;;11.80;5.90;;;;;;;19.25;73.21;97262.38;435275;1256;98840;-43
2023/08/01 17:08:04;;;;;;;6.30;4.30;;;;;;;19.20;73.41;97277.18;435205;1257;110811;-43
2023/08/01 17:18:10;;;;;;;7.80;4.90;;;;;;;19.04;73.59;97283.38;435287;1253;107606;-41
2023/08/01 17:28:16;;;;;;;5.30;4.50;;;;;;;18.90;73.65;97288.48;435080;1256;99220;-42
2023/08/01 17:38:22;;;;;;;5.00;3.80;;;;;;;18.84;73.77;97275.44;435152;1256;108835;-42
2023/08/01 17:48:28;;;;;;;4.40;3.50;;;;;;;18.73;73.99;97271.07;435129;1256;99327;-43
2023/08/01 18:08:43;;;;;;;5.10;3.70;;;;;;;18.47;74.58;97269.34;435160;1256;108340;-42
2023/08/01 18:28:54;;;;;;;6.20;3.60;;;;;;;18.33;74.99;97300.79;435077;1256;107037;-42
2023/08/01 18:49:07;;;;;;;4.30;3.60;;;;;;;18.07;75.70;97321.46;435316;1254;112317;-42
2023/08/01 18:59:12;;;;;;;5.50;3.80;;;;;;;18.06;75.84;97323.09;435010;1257;107350;-42
2023/08/01 19:09:20;;;;;;;7.30;4.60;;;;;;;18.09;75.82;97316.34;434961;1256;99229;-42
2023/08/01 19:19:26;;;;;;;5.40;3.90;;;;;;;18.07;76.04;97321.90;435099;1256;108069;-42
2023/08/01 19:29:37;;;;;;;4.90;3.60;;;;;;;18.09;76.13;97329.42;434955;1256;97998;-44
2023/08/01 19:39:46;;;;;;;7.90;4.70;;;;;;;18.04;76.44;97336.31;435229;1254;113013;-41
2023/08/01 19:49:56;;;;;;;6.00;4.20;;;;;;;18.01;76.63;97333.39;435054;1257;106759;-43
2023/08/01 20:00:06;;;;;;;6.60;3.40;;;;;;;17.96;76.70;97334.13;435059;1254;99234;-42
2023/08/01 20:10:11;;;;;;;4.90;3.70;;;;;;;17.94;76.74;97344.81;435093;1256;107247;-42
2023/08/01 20:20:20;;;;;;;5.50;3.80;;;;;;;17.94;76.87;97329.20;434935;1257;99319;-43
2023/08/01 20:30:27;;;;;;;4.70;3.70;;;;;;;17.87;76.70;97339.73;435195;1266;110820;-42
2023/08/01 20:40:36;;;;;;;6.70;4.70;;;;;;;17.77;77.00;97344.59;435003;1266;107317;-43
2023/08/01 21:11:10;;;;;;;5.50;4.40;;;;;;;17.62;77.37;97364.00;435069;1256;99227;-43
2023/08/01 21:21:17;;;;;;;7.60;4.30;;;;;;;17.59;77.73;97365.59;435177;1256;112171;-41
2023/08/01 21:31:25;;;;;;;6.10;3.70;;;;;;;17.66;77.79;97387.34;434936;1254;106892;-42
2023/08/01 21:41:32;;;;;;;5.60;4.30;;;;;;;17.68;77.83;97393.61;435079;1260;99243;-41
2023/08/01 21:51:39;;;;;;;8.20;4.30;;;;;;;17.68;77.75;97408.08;435022;1256;107591;-40
2023/08/01 22:01:44;;;;;;;6.40;4.60;;;;;;;17.57;77.94;97412.31;435093;1257;99877;-41
2023/08/01 22:11:50;;;;;;;6.30;3.90;;;;;;;17.55;78.09;97427.39;434983;1254;112046;-41
2023/08/01 22:21:55;;;;;;;8.70;4.20;;;;;;;17.65;78.07;97428.80;435024;1257;108637;-41
2023/08/01 22:32:02;;;;;;;4.70;3.80;;;;;;;17.63;78.16;97424.45;435058;1266;99224;-41
2023/08/01 22:42:10;;;;;;;5.70;4.90;;;;;;;17.47;78.29;97408.96;434962;1266;108547;-40
2023/08/01 22:52:16;;;;;;;5.90;4.30;;;;;;;17.37;78.72;97399.52;434966;1256;99339;-41
2023/08/01 23:32:42;;;;;;;5.50;3.80;;;;;;;16.99;79.36;97417.30;434981;1257;108485;-43
2023/08/01 23:42:51;;;;;;;5.50;3.80;;;;;;;16.80;79.68;97424.14;435060;1258;99340;-42
2023/08/01 23:52:57;;;;;;;6.10;4.20;;;;;;;16.71;80.17;97425.22;435148;1266;113078;-43
